sensor_id;sensor_type;location;lat;lon;timestamp;pressure;altitude;pressure_sealevel;temperature;humidity
5651;BME280;40241;52.684;9.758;2022-07-06T00:02:13;102024.13;;;18.37;47.45
5651;BME280;40241;52.684;9.758;2022-07-06T00:04:38;102027.41;;;18.35;47.53
5651;BME280;40241;52.684;9.758;2022-07-06T00:07:04;102020.84;;;18.33;47.50
5651;BME280;40241;52.684;9.758;2022-07-06T00:09:29;102017.56;;;18.29;47.44
5651;BME280;40241;52.684;9.758;2022-07-06T00:11:54;102032.03;;;18.22;47.56
5651;BME280;40241;52.684;9.758;2022-07-06T00:14:20;102026.25;;;18.14;47.43
5651;BME280;40241;52.684;9.758;2022-07-06T00:16:45;102017.66;;;18.07;47.45
5651;BME280;40241;52.684;9.758;2022-07-06T00:19:11;102020.19;;;18.05;47.66
5651;BME280;40241;52.684;9.758;2022-07-06T00:21:36;102022.47;;;18.06;47.83
5651;BME280;40241;52.684;9.758;2022-07-06T00:24:02;102020.44;;;18.07;47.87
5651;BME280;40241;52.684;9.758;2022-07-06T00:26:28;102024.50;;;18.06;47.91
5651;BME280;40241;52.684;9.758;2022-07-06T00:28:53;102019.69;;;18.06;47.83
5651;BME280;40241;52.684;9.758;2022-07-06T00:31:19;102024.25;;;18.04;47.82
5651;BME280;40241;52.684;9.758;2022-07-06T00:33:44;102022.72;;;18.03;47.94
5651;BME280;40241;52.684;9.758;2022-07-06T00:36:09;102024.00;;;18.02;47.95
5651;BME280;40241;52.684;9.758;2022-07-06T00:38:35;102015.13;;;17.97;47.84
5651;BME280;40241;52.684;9.758;2022-07-06T00:41:00;102014.16;;;17.95;47.92
5651;BME280;40241;52.684;9.758;2022-07-06T00:43:26;102016.69;;;17.93;47.96
5651;BME280;40241;52.684;9.758;2022-07-06T00:45:51;102019.97;;;17.91;48.03
5651;BME280;40241;52.684;9.758;2022-07-06T00:48:17;102013.41;;;17.89;47.87
5651;BME280;40241;52.684;9.758;2022-07-06T00:50:42;102022.28;;;17.87;48.10
5651;BME280;40241;52.684;9.758;2022-07-06T00:53:08;102016.19;;;17.83;48.19
5651;BME280;40241;52.684;9.758;2022-07-06T00:55:38;102017.69;;;17.84;48.51
5651;BME280;40241;52.684;9.758;2022-07-06T00:58:08;102019.00;;;17.83;48.15
5651;BME280;40241;52.684;9.758;2022-07-06T01:00:34;102026.56;;;17.83;48.14
5651;BME280;40241;52.684;9.758;2022-07-06T01:03:00;102024.31;;;17.81;48.16
5651;BME280;40241;52.684;9.758;2022-07-06T01:05:25;102021.28;;;17.79;48.30
5651;BME280;40241;52.684;9.758;2022-07-06T01:07:52;102023.81;;;17.77;48.33
5651;BME280;40241;52.684;9.758;2022-07-06T01:10:20;102015.47;;;17.72;48.46
5651;BME280;40241;52.684;9.758;2022-07-06T01:12:47;102022.31;;;17.71;48.41
5651;BME280;40241;52.684;9.758;2022-07-06T01:15:15;102024.34;;;17.70;48.50
5651;BME280;40241;52.684;9.758;2022-07-06T01:17:42;102025.34;;;17.67;48.28
5651;BME280;40241;52.684;9.758;2022-07-06T01:22:33;102024.34;;;17.59;48.46
5651;BME280;40241;52.684;9.758;2022-07-06T01:24:58;102038.78;;;17.58;48.48
5651;BME280;40241;52.684;9.758;2022-07-06T01:27:24;102027.66;;;17.58;48.48
5651;BME280;40241;52.684;9.758;2022-07-06T01:29:49;102023.84;;;17.55;48.48
5651;BME280;40241;52.684;9.758;2022-07-06T01:32:14;102022.06;;;17.52;48.50
5651;BME280;40241;52.684;9.758;2022-07-06T01:34:40;102018.53;;;17.52;48.63
5651;BME280;40241;52.684;9.758;2022-07-06T01:37:05;102019.03;;;17.50;48.61
5651;BME280;40241;52.684;9.758;2022-07-06T01:39:31;102021.53;;;17.48;48.73
5651;BME280;40241;52.684;9.758;2022-07-06T01:41:56;102021.28;;;17.46;48.62
5651;BME280;40241;52.684;9.758;2022-07-06T01:44:21;102024.81;;;17.41;48.66
5651;BME280;40241;52.684;9.758;2022-07-06T01:46:47;102028.63;;;17.38;48.68
5651;BME280;40241;52.684;9.758;2022-07-06T01:49:12;102028.38;;;17.36;48.73
5651;BME280;40241;52.684;9.758;2022-07-06T01:51:37;102022.56;;;17.34;48.79
5651;BME280;40241;52.684;9.758;2022-07-06T01:54:03;102025.06;;;17.32;48.79
5651;BME280;40241;52.684;9.758;2022-07-06T01:56:28;102029.13;;;17.31;49.00
5651;BME280;40241;52.684;9.758;2022-07-06T01:58:53;102033.19;;;17.30;48.98
5651;BME280;40241;52.684;9.758;2022-07-06T02:01:19;102040.03;;;17.29;48.96
5651;BME280;40241;52.684;9.758;2022-07-06T02:03:46;102017.50;;;17.27;49.02
5651;BME280;40241;52.684;9.758;2022-07-06T02:06:12;102015.97;;;17.26;49.01
5651;BME280;40241;52.684;9.758;2022-07-06T02:08:38;102024.06;;;17.24;49.14
5651;BME280;40241;52.684;9.758;2022-07-06T02:11:05;102017.75;;;17.23;49.10
5651;BME280;40241;52.684;9.758;2022-07-06T02:13:31;102018.25;;;17.22;49.18
5651;BME280;40241;52.684;9.758;2022-07-06T02:15:56;102014.72;;;17.21;49.21
5651;BME280;40241;52.684;9.758;2022-07-06T02:18:21;102018.00;;;17.20;49.18
5651;BME280;40241;52.684;9.758;2022-07-06T02:20:47;102017.75;;;17.18;49.16
5651;BME280;40241;52.684;9.758;2022-07-06T02:23:12;102014.22;;;17.17;49.27
5651;BME280;40241;52.684;9.758;2022-07-06T02:25:38;102015.50;;;17.16;49.27
5651;BME280;40241;52.684;9.758;2022-07-06T02:28:04;102011.69;;;17.14;49.31
5651;BME280;40241;52.684;9.758;2022-07-06T02:30:29;102015.72;;;17.13;49.32
5651;BME280;40241;52.684;9.758;2022-07-06T02:32:55;102017.00;;;17.12;49.33
5651;BME280;40241;52.684;9.758;2022-07-06T02:35:20;102010.44;;;17.09;49.29
5651;BME280;40241;52.684;9.758;2022-07-06T02:37:46;102026.09;;;17.07;49.65
5651;BME280;40241;52.684;9.758;2022-07-06T02:40:12;102017.25;;;17.03;49.47
5651;BME280;40241;52.684;9.758;2022-07-06T02:42:37;102013.19;;;17.04;49.46
5651;BME280;40241;52.684;9.758;2022-07-06T02:45:03;102010.16;;;17.02;49.54
5651;BME280;40241;52.684;9.758;2022-07-06T02:47:28;102017.25;;;17.03;49.56
5651;BME280;40241;52.684;9.758;2022-07-06T02:49:54;102027.09;;;17.04;49.54
5651;BME280;40241;52.684;9.758;2022-07-06T02:52:20;102024.31;;;17.04;49.56
5651;BME280;40241;52.684;9.758;2022-07-06T02:54:45;102023.06;;;17.05;49.63
5651;BME280;40241;52.684;9.758;2022-07-06T02:57:10;102024.31;;;17.04;49.72
5651;BME280;40241;52.684;9.758;2022-07-06T02:59:36;102023.31;;;17.07;49.72
5651;BME280;40241;52.684;9.758;2022-07-06T03:02:03;102027.63;;;17.08;49.73
5651;BME280;40241;52.684;9.758;2022-07-06T03:04:28;102025.59;;;17.08;49.67
5651;BME280;40241;52.684;9.758;2022-07-06T03:06:54;102031.13;;;17.08;49.75
5651;BME280;40241;52.684;9.758;2022-07-06T03:09:19;102027.88;;;17.10;49.78
5651;BME280;40241;52.684;9.758;2022-07-06T03:11:44;102034.94;;;17.11;49.81
5651;BME280;40241;52.684;9.758;2022-07-06T03:14:10;102037.72;;;17.11;49.85
5651;BME280;40241;52.684;9.758;2022-07-06T03:16:35;102030.91;;;17.12;49.88
5651;BME280;40241;52.684;9.758;2022-07-06T03:19:01;102029.38;;;17.11;49.91
5651;BME280;40241;52.684;9.758;2022-07-06T03:21:26;102033.44;;;17.10;49.80
5651;BME280;40241;52.684;9.758;2022-07-06T03:23:51;102033.44;;;17.10;49.86
5651;BME280;40241;52.684;9.758;2022-07-06T03:26:17;102034.94;;;17.11;49.79
5651;BME280;40241;52.684;9.758;2022-07-06T03:28:42;102030.91;;;17.12;50.01
5651;BME280;40241;52.684;9.758;2022-07-06T03:31:08;102026.84;;;17.13;49.99
5651;BME280;40241;52.684;9.758;2022-07-06T03:33:33;102033.19;;;17.13;50.02
5651;BME280;40241;52.684;9.758;2022-07-06T03:35:59;102031.16;;;17.14;50.01
5651;BME280;40241;52.684;9.758;2022-07-06T03:38:24;102036.22;;;17.15;50.16
5651;BME280;40241;52.684;9.758;2022-07-06T03:40:50;102032.41;;;17.13;49.98
5651;BME280;40241;52.684;9.758;2022-07-06T03:43:15;102033.44;;;17.10;50.02
5651;BME280;40241;52.684;9.758;2022-07-06T03:45:40;102035.72;;;17.11;50.13
5651;BME280;40241;52.684;9.758;2022-07-06T03:48:06;102032.41;;;17.13;49.99
5651;BME280;40241;52.684;9.758;2022-07-06T03:50:31;102037.50;;;17.14;50.15
5651;BME280;40241;52.684;9.758;2022-07-06T03:52:57;102033.69;;;17.17;50.28
5651;BME280;40241;52.684;9.758;2022-07-06T03:55:22;102043.03;;;17.20;50.29
5651;BME280;40241;52.684;9.758;2022-07-06T03:57:48;102037.72;;;17.22;50.26
5651;BME280;40241;52.684;9.758;2022-07-06T04:00:14;102040.78;;;17.24;50.44
5651;BME280;40241;52.684;9.758;2022-07-06T04:02:39;102044.56;;;17.27;50.38
5651;BME280;40241;52.684;9.758;2022-07-06T04:05:05;102041.28;;;17.28;50.35
5651;BME280;40241;52.684;9.758;2022-07-06T04:07:30;102051.41;;;17.31;50.30
5651;BME280;40241;52.684;9.758;2022-07-06T04:09:56;102036.97;;;17.33;50.30
5651;BME280;40241;52.684;9.758;2022-07-06T04:12:21;102040.78;;;17.35;50.31
5651;BME280;40241;52.684;9.758;2022-07-06T04:14:47;102041.78;;;17.38;50.27
5651;BME280;40241;52.684;9.758;2022-07-06T04:17:12;102058.72;;;17.40;50.41
5651;BME280;40241;52.684;9.758;2022-07-06T04:19:56;102047.09;;;17.41;50.29
5651;BME280;40241;52.684;9.758;2022-07-06T04:22:21;102043.31;;;17.44;50.41
5651;BME280;40241;52.684;9.758;2022-07-06T04:24:46;102046.34;;;17.46;50.42
5651;BME280;40241;52.684;9.758;2022-07-06T04:27:12;102041.78;;;17.49;50.45
5651;BME280;40241;52.684;9.758;2022-07-06T04:29:37;102051.19;;;17.51;50.42
5651;BME280;40241;52.684;9.758;2022-07-06T04:32:03;102043.09;;;17.53;50.47
5651;BME280;40241;52.684;9.758;2022-07-06T04:34:28;102042.06;;;17.56;50.43
5651;BME280;40241;52.684;9.758;2022-07-06T04:36:54;102047.88;;;17.58;50.48
5651;BME280;40241;52.684;9.758;2022-07-06T04:39:19;102055.22;;;17.61;50.60
5651;BME280;40241;52.684;9.758;2022-07-06T04:41:44;102055.47;;;17.63;50.58
5651;BME280;40241;52.684;9.758;2022-07-06T04:44:10;102047.34;;;17.65;50.57
5651;BME280;40241;52.684;9.758;2022-07-06T04:46:35;102044.09;;;17.67;50.57
5651;BME280;40241;52.684;9.758;2022-07-06T04:49:00;102045.84;;;17.70;50.62
5651;BME280;40241;52.684;9.758;2022-07-06T04:51:26;102040.53;;;17.72;50.62
5651;BME280;40241;52.684;9.758;2022-07-06T04:53:51;102041.53;;;17.74;50.73
5651;BME280;40241;52.684;9.758;2022-07-06T04:56:16;102038.22;;;17.76;50.55
5651;BME280;40241;52.684;9.758;2022-07-06T04:58:42;102032.41;;;17.79;50.69
5651;BME280;40241;52.684;9.758;2022-07-06T05:01:07;102035.44;;;17.81;50.80
5651;BME280;40241;52.684;9.758;2022-07-06T05:03:33;102041.50;;;17.85;50.56
5651;BME280;40241;52.684;9.758;2022-07-06T05:06:04;102045.56;;;17.90;50.57
5651;BME280;40241;52.684;9.758;2022-07-06T05:08:30;102050.84;;;17.93;50.59
5651;BME280;40241;52.684;9.758;2022-07-06T05:10:55;102052.38;;;17.94;50.57
5651;BME280;40241;52.684;9.758;2022-07-06T05:13:20;102050.84;;;17.99;50.62
5651;BME280;40241;52.684;9.758;2022-07-06T05:15:46;102054.66;;;18.02;50.56
5651;BME280;40241;52.684;9.758;2022-07-06T05:18:11;102051.06;;;18.07;50.62
5651;BME280;40241;52.684;9.758;2022-07-06T05:20:37;102046.75;;;18.11;50.55
5651;BME280;40241;52.684;9.758;2022-07-06T05:23:02;102050.56;;;18.14;50.61
5651;BME280;40241;52.684;9.758;2022-07-06T05:25:27;102048.78;;;18.16;50.52
5651;BME280;40241;52.684;9.758;2022-07-06T05:27:53;102035.09;;;18.18;50.37
5651;BME280;40241;52.684;9.758;2022-07-06T05:30:19;102041.66;;;18.21;50.18
5651;BME280;40241;52.684;9.758;2022-07-06T05:32:44;102039.91;;;18.23;50.34
5651;BME280;40241;52.684;9.758;2022-07-06T05:35:09;102040.91;;;18.26;50.43
5651;BME280;40241;52.684;9.758;2022-07-06T05:37:35;102041.63;;;18.32;50.49
5651;BME280;40241;52.684;9.758;2022-07-06T05:40:00;102042.13;;;18.36;50.40
5651;BME280;40241;52.684;9.758;2022-07-06T05:42:26;102059.84;;;18.38;50.47
5651;BME280;40241;52.684;9.758;2022-07-06T05:44:55;102053.22;;;18.41;50.49
5651;BME280;40241;52.684;9.758;2022-07-06T05:47:21;102051.47;;;18.38;50.45
5651;BME280;40241;52.684;9.758;2022-07-06T05:50:05;102045.38;;;18.40;50.47
5651;BME280;40241;52.684;9.758;2022-07-06T05:52:37;102056.03;;;18.47;50.28
5651;BME280;40241;52.684;9.758;2022-07-06T05:55:03;102052.47;;;18.52;50.31
5651;BME280;40241;52.684;9.758;2022-07-06T05:57:28;102045.84;;;18.55;50.14
5651;BME280;40241;52.684;9.758;2022-07-06T05:59:54;102057.50;;;18.59;50.00
5651;BME280;40241;52.684;9.758;2022-07-06T06:02:19;102050.91;;;18.62;50.19
5651;BME280;40241;52.684;9.758;2022-07-06T06:04:44;102048.59;;;18.66;49.95
5651;BME280;40241;52.684;9.758;2022-07-06T06:07:10;102051.84;;;18.70;49.98
5651;BME280;40241;52.684;9.758;2022-07-06T06:09:35;102059.19;;;18.73;49.93
5651;BME280;40241;52.684;9.758;2022-07-06T06:12:01;102055.13;;;18.74;49.94
5651;BME280;40241;52.684;9.758;2022-07-06T06:14:26;102061.22;;;18.78;49.77
5651;BME280;40241;52.684;9.758;2022-07-06T06:16:51;102056.88;;;18.83;49.73
5651;BME280;40241;52.684;9.758;2022-07-06T06:19:17;102061.66;;;18.88;49.68
5651;BME280;40241;52.684;9.758;2022-07-06T06:21:42;102067.22;;;18.93;49.71
5651;BME280;40241;52.684;9.758;2022-07-06T06:24:07;102067.16;;;18.99;49.63
5651;BME280;40241;52.684;9.758;2022-07-06T06:26:33;102069.94;;;19.04;49.58
5651;BME280;40241;52.684;9.758;2022-07-06T06:28:58;102069.63;;;19.08;49.29
5651;BME280;40241;52.684;9.758;2022-07-06T06:31:23;102071.63;;;19.13;49.42
5651;BME280;40241;52.684;9.758;2022-07-06T06:33:49;102068.03;;;19.18;49.47
5651;BME280;40241;52.684;9.758;2022-07-06T06:36:14;102071.56;;;19.24;49.23
5651;BME280;40241;52.684;9.758;2022-07-06T06:38:40;102093.59;;;19.27;49.13
5651;BME280;40241;52.684;9.758;2022-07-06T06:41:05;102082.91;;;19.31;49.11
5651;BME280;40241;52.684;9.758;2022-07-06T06:43:31;102084.69;;;19.34;49.07
5651;BME280;40241;52.684;9.758;2022-07-06T06:45:56;102081.63;;;19.38;49.01
5651;BME280;40241;52.684;9.758;2022-07-06T06:48:21;102089.19;;;19.43;48.82
5651;BME280;40241;52.684;9.758;2022-07-06T06:50:47;102079.50;;;19.50;48.86
5651;BME280;40241;52.684;9.758;2022-07-06T06:53:12;102080.22;;;19.56;48.88
5651;BME280;40241;52.684;9.758;2022-07-06T06:55:38;102091.34;;;19.61;48.88
5651;BME280;40241;52.684;9.758;2022-07-06T06:58:03;102092.03;;;19.67;48.69
5651;BME280;40241;52.684;9.758;2022-07-06T07:00:29;102091.00;;;19.70;48.52
5651;BME280;40241;52.684;9.758;2022-07-06T07:02:54;102091.47;;;19.74;48.31
5651;BME280;40241;52.684;9.758;2022-07-06T07:05:20;102083.03;;;19.80;48.32
5651;BME280;40241;52.684;9.758;2022-07-06T07:07:45;102094.91;;;19.86;48.22
5651;BME280;40241;52.684;9.758;2022-07-06T07:10:11;102085.97;;;19.93;48.22
5651;BME280;40241;52.684;9.758;2022-07-06T07:12:42;102090.75;;;19.98;47.68
5651;BME280;40241;52.684;9.758;2022-07-06T07:15:08;102097.72;;;20.10;47.69
5651;BME280;40241;52.684;9.758;2022-07-06T07:17:34;102088.75;;;20.17;47.47
5651;BME280;40241;52.684;9.758;2022-07-06T07:19:59;102110.56;;;20.24;47.14
5651;BME280;40241;52.684;9.758;2022-07-06T07:22:25;102112.28;;;20.27;47.06
5651;BME280;40241;52.684;9.758;2022-07-06T07:24:50;102109.97;;;20.31;46.80
5651;BME280;40241;52.684;9.758;2022-07-06T07:27:16;102105.31;;;20.39;46.84
5651;BME280;40241;52.684;9.758;2022-07-06T07:29:41;102108.25;;;20.47;46.85
5651;BME280;40241;52.684;9.758;2022-07-06T07:32:06;102108.19;;;20.52;46.46
5651;BME280;40241;52.684;9.758;2022-07-06T07:34:32;102110.19;;;20.57;46.23
5651;BME280;40241;52.684;9.758;2022-07-06T07:36:57;102120.53;;;20.62;46.38
5651;BME280;40241;52.684;9.758;2022-07-06T07:39:23;102109.56;;;20.64;45.81
5651;BME280;40241;52.684;9.758;2022-07-06T07:41:48;102117.38;;;20.71;46.11
5651;BME280;40241;52.684;9.758;2022-07-06T07:44:15;102116.53;;;20.76;45.91
5651;BME280;40241;52.684;9.758;2022-07-06T07:46:41;102111.72;;;20.77;45.75
5651;BME280;40241;52.684;9.758;2022-07-06T07:49:06;102106.78;;;20.83;45.83
5651;BME280;40241;52.684;9.758;2022-07-06T07:51:32;102103.19;;;20.88;45.60
5651;BME280;40241;52.684;9.758;2022-07-06T07:53:58;102105.78;;;20.99;45.48
5651;BME280;40241;52.684;9.758;2022-07-06T07:56:23;102103.19;;;21.07;45.27
5651;BME280;40241;52.684;9.758;2022-07-06T07:58:49;102112.03;;;21.11;45.07
5651;BME280;40241;52.684;9.758;2022-07-06T08:01:14;102111.94;;;21.16;45.25
5651;BME280;40241;52.684;9.758;2022-07-06T08:03:40;102107.69;;;21.28;45.15
5651;BME280;40241;52.684;9.758;2022-07-06T08:06:05;102113.66;;;21.38;45.26
5651;BME280;40241;52.684;9.758;2022-07-06T08:08:30;102109.69;;;21.46;44.86
5651;BME280;40241;52.684;9.758;2022-07-06T08:10:56;102111.56;;;21.57;44.69
5651;BME280;40241;52.684;9.758;2022-07-06T08:13:21;102100.25;;;21.62;44.69
5651;BME280;40241;52.684;9.758;2022-07-06T08:15:47;102111.25;;;21.60;44.52
5651;BME280;40241;52.684;9.758;2022-07-06T08:18:12;102105.75;;;21.55;44.69
5651;BME280;40241;52.684;9.758;2022-07-06T08:20:38;102104.00;;;21.52;44.60
5651;BME280;40241;52.684;9.758;2022-07-06T08:23:04;102103.78;;;21.50;44.71
5651;BME280;40241;52.684;9.758;2022-07-06T08:25:30;102112.09;;;21.55;44.58
5651;BME280;40241;52.684;9.758;2022-07-06T08:27:56;102106.63;;;21.63;44.63
5651;BME280;40241;52.684;9.758;2022-07-06T08:30:21;102100.47;;;21.64;44.31
5651;BME280;40241;52.684;9.758;2022-07-06T08:32:47;102107.16;;;21.61;44.39
5651;BME280;40241;52.684;9.758;2022-07-06T08:35:12;102099.31;;;21.60;44.36
5651;BME280;40241;52.684;9.758;2022-07-06T08:37:38;102099.31;;;21.60;44.40
5651;BME280;40241;52.684;9.758;2022-07-06T08:40:04;102105.84;;;21.62;44.24
5651;BME280;40241;52.684;9.758;2022-07-06T08:42:33;102100.78;;;21.61;44.11
5651;BME280;40241;52.684;9.758;2022-07-06T08:45:01;102102.31;;;21.62;44.27
5651;BME280;40241;52.684;9.758;2022-07-06T08:47:27;102103.84;;;21.76;44.01
5651;BME280;40241;52.684;9.758;2022-07-06T08:49:54;102097.53;;;21.89;43.68
5651;BME280;40241;52.684;9.758;2022-07-06T08:52:21;102102.72;;;21.98;43.21
5651;BME280;40241;52.684;9.758;2022-07-06T08:54:46;102097.25;;;22.05;43.11
5651;BME280;40241;52.684;9.758;2022-07-06T08:57:12;102097.13;;;22.11;42.60
5651;BME280;40241;52.684;9.758;2022-07-06T08:59:38;102098.72;;;22.06;42.57
5651;BME280;40241;52.684;9.758;2022-07-06T09:02:04;102089.03;;;22.07;42.61
5651;BME280;40241;52.684;9.758;2022-07-06T09:04:32;102086.03;;;22.05;42.58
5651;BME280;40241;52.684;9.758;2022-07-06T09:06:58;102094.44;;;22.05;42.60
5651;BME280;40241;52.684;9.758;2022-07-06T09:09:24;102091.72;;;22.00;42.56
5651;BME280;40241;52.684;9.758;2022-07-06T09:11:51;102097.44;;;21.94;42.66
5651;BME280;40241;52.684;9.758;2022-07-06T09:14:17;102095.81;;;21.86;42.72
5651;BME280;40241;52.684;9.758;2022-07-06T09:16:45;102098.69;;;21.80;42.68
5651;BME280;40241;52.684;9.758;2022-07-06T09:19:11;102095.31;;;21.69;42.82
5651;BME280;40241;52.684;9.758;2022-07-06T09:21:37;102098.22;;;21.63;42.84
5651;BME280;40241;52.684;9.758;2022-07-06T09:24:09;102107.69;;;21.60;42.78
5651;BME280;40241;52.684;9.758;2022-07-06T09:26:35;102104.22;;;21.54;43.00
5651;BME280;40241;52.684;9.758;2022-07-06T09:29:00;102116.94;;;21.55;43.07
5651;BME280;40241;52.684;9.758;2022-07-06T09:31:26;102120.72;;;21.57;42.80
5651;BME280;40241;52.684;9.758;2022-07-06T09:36:48;102106.03;;;21.51;41.92
5651;BME280;40241;52.684;9.758;2022-07-06T09:39:24;102107.69;;;21.60;42.08
5651;BME280;40241;52.684;9.758;2022-07-06T09:41:55;102107.50;;;21.71;42.34
5651;BME280;40241;52.684;9.758;2022-07-06T09:44:28;102110.25;;;21.90;41.90
5651;BME280;40241;52.684;9.758;2022-07-06T09:46:59;102105.31;;;22.09;41.56
5651;BME280;40241;52.684;9.758;2022-07-06T09:49:26;102100.91;;;22.26;41.62
5651;BME280;40241;52.684;9.758;2022-07-06T09:52:03;102103.16;;;22.41;40.75
5651;BME280;40241;52.684;9.758;2022-07-06T09:54:29;102102.63;;;22.56;41.39
5651;BME280;40241;52.684;9.758;2022-07-06T09:56:56;102102.50;;;22.61;41.07
5651;BME280;40241;52.684;9.758;2022-07-06T09:59:26;102106.19;;;22.56;40.97
5651;BME280;40241;52.684;9.758;2022-07-06T10:01:56;102105.97;;;22.41;41.03
5651;BME280;40241;52.684;9.758;2022-07-06T10:04:23;102114.38;;;22.28;41.43
5651;BME280;40241;52.684;9.758;2022-07-06T10:06:49;102119.75;;;22.13;41.50
5651;BME280;40241;52.684;9.758;2022-07-06T10:09:15;102124.84;;;22.01;41.50
5651;BME280;40241;52.684;9.758;2022-07-06T10:11:48;102123.00;;;21.91;41.52
5651;BME280;40241;52.684;9.758;2022-07-06T10:14:19;102120.06;;;21.83;41.62
5651;BME280;40241;52.684;9.758;2022-07-06T10:16:46;102126.47;;;21.78;41.75
5651;BME280;40241;52.684;9.758;2022-07-06T10:19:13;102119.16;;;21.75;41.94
5651;BME280;40241;52.684;9.758;2022-07-06T10:21:40;102119.59;;;21.79;41.77
5651;BME280;40241;52.684;9.758;2022-07-06T10:24:07;102117.00;;;21.81;41.85
5651;BME280;40241;52.684;9.758;2022-07-06T10:26:34;102114.13;;;21.87;41.90
5651;BME280;40241;52.684;9.758;2022-07-06T10:29:04;102116.84;;;21.92;41.85
5651;BME280;40241;52.684;9.758;2022-07-06T10:31:30;102114.16;;;22.00;41.86
5651;BME280;40241;52.684;9.758;2022-07-06T10:33:57;102119.66;;;22.05;41.72
5651;BME280;40241;52.684;9.758;2022-07-06T10:36:24;102119.25;;;22.14;41.67
5651;BME280;40241;52.684;9.758;2022-07-06T10:38:51;102118.06;;;22.23;41.58
5651;BME280;40241;52.684;9.758;2022-07-06T10:41:17;102112.75;;;22.32;41.29
5651;BME280;40241;52.684;9.758;2022-07-06T10:43:45;102115.13;;;22.42;41.34
5651;BME280;40241;52.684;9.758;2022-07-06T10:46:17;102111.78;;;22.56;40.76
5651;BME280;40241;52.684;9.758;2022-07-06T10:48:46;102119.56;;;22.63;40.89
5651;BME280;40241;52.684;9.758;2022-07-06T10:51:32;102115.34;;;22.70;40.39
5651;BME280;40241;52.684;9.758;2022-07-06T10:54:05;102108.00;;;22.80;40.06
5651;BME280;40241;52.684;9.758;2022-07-06T10:59:09;102092.88;;;22.83;39.70
5651;BME280;40241;52.684;9.758;2022-07-06T11:01:35;102093.16;;;22.92;40.37
5651;BME280;40241;52.684;9.758;2022-07-06T11:06:28;102100.28;;;23.27;39.88
5651;BME280;40241;52.684;9.758;2022-07-06T11:09:07;102094.63;;;23.40;39.17
5651;BME280;40241;52.684;9.758;2022-07-06T11:14:03;102100.78;;;23.39;39.23
5651;BME280;40241;52.684;9.758;2022-07-06T11:16:32;102096.06;;;23.34;39.37
5651;BME280;40241;52.684;9.758;2022-07-06T11:24:02;102091.06;;;23.06;39.26
5651;BME280;40241;52.684;9.758;2022-07-06T11:26:30;102096.94;;;22.95;39.39
5651;BME280;40241;52.684;9.758;2022-07-06T11:28:55;102098.88;;;22.87;39.51
5651;BME280;40241;52.684;9.758;2022-07-06T11:31:23;102100.88;;;22.79;39.70
5651;BME280;40241;52.684;9.758;2022-07-06T11:33:48;102098.19;;;22.73;39.57
5651;BME280;40241;52.684;9.758;2022-07-06T11:36:18;102098.19;;;22.73;39.79
5651;BME280;40241;52.684;9.758;2022-07-06T11:38:46;102094.84;;;22.75;39.94
5651;BME280;40241;52.684;9.758;2022-07-06T11:41:12;102093.31;;;22.74;39.80
5651;BME280;40241;52.684;9.758;2022-07-06T11:43:48;102090.63;;;22.68;39.74
5651;BME280;40241;52.684;9.758;2022-07-06T11:46:33;102092.47;;;22.66;39.60
5651;BME280;40241;52.684;9.758;2022-07-06T11:49:08;102096.16;;;22.61;39.09
5651;BME280;40241;52.684;9.758;2022-07-06T11:51:37;102100.47;;;22.49;39.54
5651;BME280;40241;52.684;9.758;2022-07-06T11:54:09;102099.81;;;22.43;39.75
5651;BME280;40241;52.684;9.758;2022-07-06T11:56:35;102098.84;;;22.40;40.01
5651;BME280;40241;52.684;9.758;2022-07-06T11:59:02;102093.03;;;22.38;39.64
5651;BME280;40241;52.684;9.758;2022-07-06T12:01:28;102096.13;;;22.48;39.78
5651;BME280;40241;52.684;9.758;2022-07-06T12:04:00;102092.81;;;22.49;39.34
5651;BME280;40241;52.684;9.758;2022-07-06T12:06:26;102094.19;;;22.56;39.58
5651;BME280;40241;52.684;9.758;2022-07-06T12:08:54;102085.56;;;22.67;39.18
5651;BME280;40241;52.684;9.758;2022-07-06T12:11:28;102082.59;;;22.85;39.25
5651;BME280;40241;52.684;9.758;2022-07-06T12:14:00;102077.91;;;23.01;39.11
5651;BME280;40241;52.684;9.758;2022-07-06T12:16:36;102098.59;;;23.11;38.45
5651;BME280;40241;52.684;9.758;2022-07-06T12:19:03;102069.13;;;23.38;38.92
5651;BME280;40241;52.684;9.758;2022-07-06T12:21:29;102064.34;;;23.74;38.44
5651;BME280;40241;52.684;9.758;2022-07-06T12:23:55;102062.66;;;24.00;38.01
5651;BME280;40241;52.684;9.758;2022-07-06T12:26:25;102052.56;;;24.04;37.36
5651;BME280;40241;52.684;9.758;2022-07-06T12:29:04;102054.84;;;24.06;36.45
5651;BME280;40241;52.684;9.758;2022-07-06T12:31:36;102052.25;;;24.08;37.50
5651;BME280;40241;52.684;9.758;2022-07-06T12:34:03;102050.00;;;24.14;37.56
5651;BME280;40241;52.684;9.758;2022-07-06T12:36:29;102044.81;;;24.18;37.13
5651;BME280;40241;52.684;9.758;2022-07-06T12:38:55;102042.22;;;24.27;37.22
5651;BME280;40241;52.684;9.758;2022-07-06T12:41:28;102037.44;;;24.50;36.59
5651;BME280;40241;52.684;9.758;2022-07-06T12:44:05;102027.38;;;24.70;36.90
5651;BME280;40241;52.684;9.758;2022-07-06T12:46:38;102025.16;;;24.76;36.41
5651;BME280;40241;52.684;9.758;2022-07-06T12:49:14;102032.69;;;24.81;36.64
5651;BME280;40241;52.684;9.758;2022-07-06T12:51:59;102031.69;;;24.71;35.73
5651;BME280;40241;52.684;9.758;2022-07-06T12:54:31;102026.22;;;24.58;36.65
5651;BME280;40241;52.684;9.758;2022-07-06T12:59:25;102029.09;;;24.30;36.79
5651;BME280;40241;52.684;9.758;2022-07-06T13:01:52;102036.97;;;24.24;36.92
5651;BME280;40241;52.684;9.758;2022-07-06T13:04:22;102037.88;;;24.19;36.90
5651;BME280;40241;52.684;9.758;2022-07-06T13:06:47;102034.28;;;24.18;36.74
5651;BME280;40241;52.684;9.758;2022-07-06T13:09:12;102042.00;;;24.18;37.10
5651;BME280;40241;52.684;9.758;2022-07-06T13:11:40;102035.03;;;24.11;36.68
5651;BME280;40241;52.684;9.758;2022-07-06T13:14:05;102030.53;;;24.16;36.65
5651;BME280;40241;52.684;9.758;2022-07-06T13:16:31;102042.41;;;24.29;36.78
5651;BME280;40241;52.684;9.758;2022-07-06T13:19:00;102034.84;;;24.52;36.18